sensor_id;sensor_type;location;lat;lon;timestamp;pressure;altitude;pressure_sealevel;temperature;humidity
50684;BME280;36654;45.042;38.994;2024-01-30T00:02:12;103316.63;;;-3.74;78.91
50684;BME280;36654;45.042;38.994;2024-01-30T00:04:37;103240.78;;;-4.12;79.04
50684;BME280;36654;45.042;38.994;2024-01-30T00:07:04;103270.72;;;-4.06;79.04
50684;BME280;36654;45.042;38.994;2024-01-30T00:09:30;103313.03;;;-3.83;79.12
50684;BME280;36654;45.042;38.994;2024-01-30T00:11:56;103289.25;;;-3.95;79.25
50684;BME280;36654;45.042;38.994;2024-01-30T00:14:22;103313.03;;;-3.83;79.22
50684;BME280;36654;45.042;38.994;2024-01-30T00:16:48;103308.59;;;-3.84;79.45
50684;BME280;36654;45.042;38.994;2024-01-30T00:19:14;103308.25;;;-3.87;79.27
50684;BME280;36654;45.042;38.994;2024-01-30T00:21:41;103310.09;;;-4.02;79.49
50684;BME280;36654;45.042;38.994;2024-01-30T00:24:07;103312.00;;;-3.92;79.41
50684;BME280;36654;45.042;38.994;2024-01-30T00:26:33;103300.38;;;-3.96;79.53
50684;BME280;36654;45.042;38.994;2024-01-30T00:28:59;103313.94;;;-3.98;79.59
50684;BME280;36654;45.042;38.994;2024-01-30T00:31:25;103284.38;;;-4.07;79.77
50684;BME280;36654;45.042;38.994;2024-01-30T00:33:51;103298.78;;;-4.02;79.80
50684;BME280;36654;45.042;38.994;2024-01-30T00:36:16;103292.03;;;-4.09;79.83
50684;BME280;36654;45.042;38.994;2024-01-30T00:38:42;103280.03;;;-4.16;79.98
50684;BME280;36654;45.042;38.994;2024-01-30T00:41:08;103302.84;;;-4.04;79.92
50684;BME280;36654;45.042;38.994;2024-01-30T00:43:34;103272.66;;;-4.20;80.01
50684;BME280;36654;45.042;38.994;2024-01-30T00:46:00;103291.06;;;-4.09;80.15
50684;BME280;36654;45.042;38.994;2024-01-30T00:48:26;103297.19;;;-4.09;79.98
50684;BME280;36654;45.042;38.994;2024-01-30T00:50:51;103288.22;;;-4.20;80.18
50684;BME280;36654;45.042;38.994;2024-01-30T00:53:17;103300.78;;;-4.16;80.28
50684;BME280;36654;45.042;38.994;2024-01-30T00:55:43;103312.03;;;-4.15;80.22
50684;BME280;36654;45.042;38.994;2024-01-30T00:58:09;103284.19;;;-4.25;80.39
50684;BME280;36654;45.042;38.994;2024-01-30T01:00:34;103304.13;;;-4.17;80.37
50684;BME280;36654;45.042;38.994;2024-01-30T01:03:01;103297.84;;;-4.19;80.51
50684;BME280;36654;45.042;38.994;2024-01-30T01:05:26;103298.81;;;-4.25;80.51
50684;BME280;36654;45.042;38.994;2024-01-30T01:07:52;103285.78;;;-4.34;80.41
50684;BME280;36654;45.042;38.994;2024-01-30T01:10:18;103299.72;;;-4.25;80.51
50684;BME280;36654;45.042;38.994;2024-01-30T01:12:44;103314.19;;;-4.27;80.54
50684;BME280;36654;45.042;38.994;2024-01-30T01:15:10;103297.56;;;-4.29;80.58
50684;BME280;36654;45.042;38.994;2024-01-30T01:17:36;103294.47;;;-4.34;80.77
50684;BME280;36654;45.042;38.994;2024-01-30T01:20:03;103300.88;;;-4.30;80.90
50684;BME280;36654;45.042;38.994;2024-01-30T01:22:31;103298.72;;;-4.34;80.90
50684;BME280;36654;45.042;38.994;2024-01-30T01:24:57;103310.91;;;-4.33;80.79
50684;BME280;36654;45.042;38.994;2024-01-30T01:27:22;103297.44;;;-4.38;80.80
50684;BME280;36654;45.042;38.994;2024-01-30T01:29:48;103303.91;;;-4.34;81.01
50684;BME280;36654;45.042;38.994;2024-01-30T01:32:14;103336.47;;;-4.36;80.90
50684;BME280;36654;45.042;38.994;2024-01-30T01:34:39;103312.97;;;-4.38;80.73
50684;BME280;36654;45.042;38.994;2024-01-30T01:37:06;103287.44;;;-4.58;80.96
50684;BME280;36654;45.042;38.994;2024-01-30T01:39:32;103269.75;;;-4.62;80.71
50684;BME280;36654;45.042;38.994;2024-01-30T01:41:58;103322.44;;;-4.38;81.05
50684;BME280;36654;45.042;38.994;2024-01-30T01:44:25;103317.84;;;-4.41;81.07
50684;BME280;36654;45.042;38.994;2024-01-30T01:46:51;103310.44;;;-4.45;81.00
50684;BME280;36654;45.042;38.994;2024-01-30T01:49:16;103290.94;;;-4.57;80.86
50684;BME280;36654;45.042;38.994;2024-01-30T01:51:43;103317.13;;;-4.47;80.91
50684;BME280;36654;45.042;38.994;2024-01-30T01:54:10;103307.72;;;-4.46;81.17
50684;BME280;36654;45.042;38.994;2024-01-30T01:56:36;103304.94;;;-4.48;81.13
50684;BME280;36654;45.042;38.994;2024-01-30T01:59:07;103303.25;;;-4.47;81.24
50684;BME280;36654;45.042;38.994;2024-01-30T02:01:34;103303.69;;;-4.51;81.08
50684;BME280;36654;45.042;38.994;2024-01-30T02:04:01;103303.69;;;-4.51;81.17
50684;BME280;36654;45.042;38.994;2024-01-30T02:06:27;103317.78;;;-4.57;81.19
50684;BME280;36654;45.042;38.994;2024-01-30T02:08:54;103314.25;;;-4.57;81.25
50684;BME280;36654;45.042;38.994;2024-01-30T02:11:21;103316.50;;;-4.60;81.48
50684;BME280;36654;45.042;38.994;2024-01-30T02:13:47;103291.28;;;-4.77;81.55
50684;BME280;36654;45.042;38.994;2024-01-30T02:16:13;103299.03;;;-4.77;81.57
50684;BME280;36654;45.042;38.994;2024-01-30T02:18:39;103313.38;;;-4.65;81.53
50684;BME280;36654;45.042;38.994;2024-01-30T02:21:08;103310.78;;;-4.65;81.69
50684;BME280;36654;45.042;38.994;2024-01-30T02:23:34;103300.63;;;-4.63;81.60
50684;BME280;36654;45.042;38.994;2024-01-30T02:26:00;103289.41;;;-4.71;81.75
50684;BME280;36654;45.042;38.994;2024-01-30T02:28:26;103298.94;;;-4.63;81.64
50684;BME280;36654;45.042;38.994;2024-01-30T02:30:53;103291.41;;;-4.68;81.89
50684;BME280;36654;45.042;38.994;2024-01-30T02:33:20;103298.28;;;-4.69;81.61
50684;BME280;36654;45.042;38.994;2024-01-30T02:35:48;103296.06;;;-4.73;81.64
50684;BME280;36654;45.042;38.994;2024-01-30T02:38:15;103297.75;;;-4.73;81.83
50684;BME280;36654;45.042;38.994;2024-01-30T02:40:41;103294.59;;;-4.71;81.94
50684;BME280;36654;45.042;38.994;2024-01-30T02:43:06;103294.97;;;-4.75;81.85
50684;BME280;36654;45.042;38.994;2024-01-30T02:45:32;103278.38;;;-4.84;81.75
50684;BME280;36654;45.042;38.994;2024-01-30T02:47:58;103300.91;;;-4.76;82.08
50684;BME280;36654;45.042;38.994;2024-01-30T02:50:23;103299.41;;;-4.74;82.00
50684;BME280;36654;45.042;38.994;2024-01-30T02:52:49;103305.31;;;-4.75;81.98
50684;BME280;36654;45.042;38.994;2024-01-30T02:55:15;103310.16;;;-4.78;81.94
50684;BME280;36654;45.042;38.994;2024-01-30T02:57:43;103241.63;;;-5.12;81.90
50684;BME280;36654;45.042;38.994;2024-01-30T03:00:09;103304.41;;;-4.75;81.98
50684;BME280;36654;45.042;38.994;2024-01-30T03:02:36;103311.41;;;-4.74;82.10
50684;BME280;36654;45.042;38.994;2024-01-30T03:05:03;103304.22;;;-4.77;81.89
50684;BME280;36654;45.042;38.994;2024-01-30T03:07:30;103272.34;;;-4.92;81.99
50684;BME280;36654;45.042;38.994;2024-01-30T03:09:55;103291.13;;;-4.79;81.86
50684;BME280;36654;45.042;38.994;2024-01-30T03:12:21;103307.56;;;-4.78;81.93
50684;BME280;36654;45.042;38.994;2024-01-30T03:14:47;103238.88;;;-5.13;82.20
50684;BME280;36654;45.042;38.994;2024-01-30T03:17:13;103295.00;;;-4.82;82.15
50684;BME280;36654;45.042;38.994;2024-01-30T03:19:39;103289.16;;;-4.88;82.20
50684;BME280;36654;45.042;38.994;2024-01-30T03:22:04;103262.22;;;-4.97;82.10
50684;BME280;36654;45.042;38.994;2024-01-30T03:24:30;103262.69;;;-5.09;82.10
50684;BME280;36654;45.042;38.994;2024-01-30T03:26:56;103297.84;;;-4.88;82.24
50684;BME280;36654;45.042;38.994;2024-01-30T03:29:21;103305.81;;;-4.93;82.07
50684;BME280;36654;45.042;38.994;2024-01-30T03:31:47;103307.66;;;-4.92;82.11
50684;BME280;36654;45.042;38.994;2024-01-30T03:34:12;103298.44;;;-4.97;82.24
50684;BME280;36654;45.042;38.994;2024-01-30T03:36:38;103284.06;;;-5.03;82.40
50684;BME280;36654;45.042;38.994;2024-01-30T03:39:04;103266.56;;;-5.12;82.47
50684;BME280;36654;45.042;38.994;2024-01-30T03:41:29;103288.53;;;-5.02;82.61
50684;BME280;36654;45.042;38.994;2024-01-30T03:43:55;103316.91;;;-4.94;82.52
50684;BME280;36654;45.042;38.994;2024-01-30T03:46:21;103317.31;;;-4.99;82.62
50684;BME280;36654;45.042;38.994;2024-01-30T03:48:46;103284.88;;;-5.11;82.49
50684;BME280;36654;45.042;38.994;2024-01-30T03:51:12;103314.53;;;-5.00;82.81
50684;BME280;36654;45.042;38.994;2024-01-30T03:53:44;103305.69;;;-5.02;82.82
50684;BME280;36654;45.042;38.994;2024-01-30T03:56:11;103303.63;;;-4.97;82.62
50684;BME280;36654;45.042;38.994;2024-01-30T03:58:39;103310.66;;;-4.96;82.78
50684;BME280;36654;45.042;38.994;2024-01-30T04:01:04;103306.22;;;-4.97;82.98
50684;BME280;36654;45.042;38.994;2024-01-30T04:03:30;103308.81;;;-4.97;82.76
50684;BME280;36654;45.042;38.994;2024-01-30T04:05:56;103289.63;;;-5.07;82.52
50684;BME280;36654;45.042;38.994;2024-01-30T04:08:21;103325.09;;;-4.99;82.78
50684;BME280;36654;45.042;38.994;2024-01-30T04:10:47;103306.63;;;-5.02;82.48
50684;BME280;36654;45.042;38.994;2024-01-30T04:13:13;103301.88;;;-5.13;82.58
50684;BME280;36654;45.042;38.994;2024-01-30T04:15:39;103317.75;;;-5.10;82.74
50684;BME280;36654;45.042;38.994;2024-01-30T04:18:05;103335.47;;;-5.06;82.76
50684;BME280;36654;45.042;38.994;2024-01-30T04:20:31;103319.03;;;-5.06;82.52
50684;BME280;36654;45.042;38.994;2024-01-30T04:22:56;103328.44;;;-5.07;82.70
50684;BME280;36654;45.042;38.994;2024-01-30T04:25:22;103320.34;;;-5.17;82.60
50684;BME280;36654;45.042;38.994;2024-01-30T04:27:48;103316.28;;;-5.15;82.89
50684;BME280;36654;45.042;38.994;2024-01-30T04:30:14;103316.84;;;-5.17;82.69
50684;BME280;36654;45.042;38.994;2024-01-30T04:32:40;103309.69;;;-5.27;82.66
50684;BME280;36654;45.042;38.994;2024-01-30T04:35:06;103331.47;;;-5.18;82.82
50684;BME280;36654;45.042;38.994;2024-01-30T04:37:32;103324.50;;;-5.26;82.69
50684;BME280;36654;45.042;38.994;2024-01-30T04:39:57;103337.75;;;-5.16;82.98
50684;BME280;36654;45.042;38.994;2024-01-30T04:42:23;103353.25;;;-5.16;82.91
50684;BME280;36654;45.042;38.994;2024-01-30T04:44:49;103298.34;;;-5.44;82.79
50684;BME280;36654;45.042;38.994;2024-01-30T04:47:15;103345.16;;;-5.19;82.76
50684;BME280;36654;45.042;38.994;2024-01-30T04:49:41;103334.84;;;-5.26;82.97
50684;BME280;36654;45.042;38.994;2024-01-30T04:52:08;103329.13;;;-5.31;82.72
50684;BME280;36654;45.042;38.994;2024-01-30T04:54:35;103339.81;;;-5.28;82.93
50684;BME280;36654;45.042;38.994;2024-01-30T04:57:01;103333.75;;;-5.35;82.93
50684;BME280;36654;45.042;38.994;2024-01-30T04:59:27;103337.81;;;-5.30;82.99
50684;BME280;36654;45.042;38.994;2024-01-30T05:01:53;103320.06;;;-5.34;83.06
50684;BME280;36654;45.042;38.994;2024-01-30T05:04:18;103335.94;;;-5.24;83.18
50684;BME280;36654;45.042;38.994;2024-01-30T05:06:44;103329.28;;;-5.29;83.22
50684;BME280;36654;45.042;38.994;2024-01-30T05:09:10;103330.78;;;-5.24;83.28
50684;BME280;36654;45.042;38.994;2024-01-30T05:11:41;103330.00;;;-5.23;83.20
50684;BME280;36654;45.042;38.994;2024-01-30T05:14:07;103355.84;;;-5.16;83.24
50684;BME280;36654;45.042;38.994;2024-01-30T05:16:34;103351.41;;;-5.17;83.12
50684;BME280;36654;45.042;38.994;2024-01-30T05:18:59;103353.25;;;-5.16;83.26
50684;BME280;36654;45.042;38.994;2024-01-30T05:21:25;103350.81;;;-5.14;82.79
50684;BME280;36654;45.042;38.994;2024-01-30T05:23:51;103364.72;;;-5.14;82.90
50684;BME280;36654;45.042;38.994;2024-01-30T05:26:17;103278.63;;;-5.57;82.71
50684;BME280;36654;45.042;38.994;2024-01-30T05:28:43;103348.81;;;-5.17;82.92
50684;BME280;36654;45.042;38.994;2024-01-30T05:31:11;103343.28;;;-5.20;82.64
50684;BME280;36654;45.042;38.994;2024-01-30T05:33:44;103351.97;;;-5.20;82.60
50684;BME280;36654;45.042;38.994;2024-01-30T05:36:12;103365.06;;;-5.11;82.58
50684;BME280;36654;45.042;38.994;2024-01-30T05:38:39;103335.53;;;-5.20;82.48
50684;BME280;36654;45.042;38.994;2024-01-30T05:41:05;103373.16;;;-5.08;82.30
50684;BME280;36654;45.042;38.994;2024-01-30T05:43:31;103354.31;;;-5.07;82.37
50684;BME280;36654;45.042;38.994;2024-01-30T05:45:57;103353.53;;;-4.99;82.48
50684;BME280;36654;45.042;38.994;2024-01-30T05:48:23;103352.06;;;-4.96;82.17
50684;BME280;36654;45.042;38.994;2024-01-30T05:50:48;103354.69;;;-5.04;81.83
50684;BME280;36654;45.042;38.994;2024-01-30T05:53:14;103294.91;;;-5.21;81.79
50684;BME280;36654;45.042;38.994;2024-01-30T05:55:40;103286.81;;;-5.24;81.73
50684;BME280;36654;45.042;38.994;2024-01-30T05:58:05;103343.31;;;-4.90;81.52
50684;BME280;36654;45.042;38.994;2024-01-30T06:00:31;103349.97;;;-4.92;81.51
50684;BME280;36654;45.042;38.994;2024-01-30T06:02:56;103370.09;;;-4.89;81.42
50684;BME280;36654;45.042;38.994;2024-01-30T06:05:24;103353.50;;;-4.91;81.16
50684;BME280;36654;45.042;38.994;2024-01-30T06:07:50;103372.31;;;-4.85;81.11
50684;BME280;36654;45.042;38.994;2024-01-30T06:10:16;103347.44;;;-4.99;80.85
50684;BME280;36654;45.042;38.994;2024-01-30T06:12:43;103366.03;;;-4.87;80.87
50684;BME280;36654;45.042;38.994;2024-01-30T06:15:08;103364.94;;;-4.89;80.74
50684;BME280;36654;45.042;38.994;2024-01-30T06:17:36;103377.84;;;-4.82;80.71
50684;BME280;36654;45.042;38.994;2024-01-30T06:20:02;103368.28;;;-4.90;80.50
50684;BME280;36654;45.042;38.994;2024-01-30T06:22:30;103371.97;;;-4.88;80.40
50684;BME280;36654;45.042;38.994;2024-01-30T06:24:55;103297.84;;;-5.18;80.40
50684;BME280;36654;45.042;38.994;2024-01-30T06:27:21;103364.50;;;-4.78;80.21
50684;BME280;36654;45.042;38.994;2024-01-30T06:29:46;103360.78;;;-4.73;80.14
50684;BME280;36654;45.042;38.994;2024-01-30T06:32:12;103367.41;;;-4.68;80.18
50684;BME280;36654;45.042;38.994;2024-01-30T06:34:38;103323.19;;;-4.92;80.05
50684;BME280;36654;45.042;38.994;2024-01-30T06:37:05;103354.41;;;-4.61;79.86
50684;BME280;36654;45.042;38.994;2024-01-30T06:39:31;103363.63;;;-4.56;79.71
50684;BME280;36654;45.042;38.994;2024-01-30T06:41:59;103376.28;;;-4.43;79.81
50684;BME280;36654;45.042;38.994;2024-01-30T06:44:25;103369.38;;;-4.35;79.58
50684;BME280;36654;45.042;38.994;2024-01-30T06:46:50;103371.25;;;-4.34;79.27
50684;BME280;36654;45.042;38.994;2024-01-30T06:49:16;103357.53;;;-4.33;79.27
50684;BME280;36654;45.042;38.994;2024-01-30T06:51:43;103377.44;;;-4.25;78.89
50684;BME280;36654;45.042;38.994;2024-01-30T06:54:08;103370.19;;;-4.20;78.79
50684;BME280;36654;45.042;38.994;2024-01-30T06:56:34;103360.41;;;-4.23;78.54
50684;BME280;36654;45.042;38.994;2024-01-30T06:59:00;103345.44;;;-4.25;78.31
50684;BME280;36654;45.042;38.994;2024-01-30T07:01:31;103358.91;;;-4.21;78.15
50684;BME280;36654;45.042;38.994;2024-01-30T07:03:58;103364.78;;;-4.15;78.05
50684;BME280;36654;45.042;38.994;2024-01-30T07:06:23;103371.38;;;-4.09;77.87
50684;BME280;36654;45.042;38.994;2024-01-30T07:08:50;103352.91;;;-4.13;77.77
50684;BME280;36654;45.042;38.994;2024-01-30T07:11:19;103373.53;;;-3.98;77.52
50684;BME280;36654;45.042;38.994;2024-01-30T07:13:46;103368.69;;;-3.95;77.25
50684;BME280;36654;45.042;38.994;2024-01-30T07:16:12;103374.78;;;-3.95;76.86
50684;BME280;36654;45.042;38.994;2024-01-30T07:18:38;103364.00;;;-3.91;76.61
50684;BME280;36654;45.042;38.994;2024-01-30T07:21:04;103372.75;;;-3.74;76.99
50684;BME280;36654;45.042;38.994;2024-01-30T07:23:29;103363.88;;;-3.60;76.79
50684;BME280;36654;45.042;38.994;2024-01-30T07:25:57;103362.25;;;-3.44;76.44
50684;BME280;36654;45.042;38.994;2024-01-30T07:28:23;103379.03;;;-3.25;76.07
50684;BME280;36654;45.042;38.994;2024-01-30T07:30:49;103346.56;;;-3.21;75.71
50684;BME280;36654;45.042;38.994;2024-01-30T07:33:15;103368.38;;;-3.03;74.90
50684;BME280;36654;45.042;38.994;2024-01-30T07:35:41;103327.41;;;-3.14;74.38
50684;BME280;36654;45.042;38.994;2024-01-30T07:38:07;103365.69;;;-2.96;73.48
50684;BME280;36654;45.042;38.994;2024-01-30T07:40:33;103358.91;;;-3.03;73.05
50684;BME280;36654;45.042;38.994;2024-01-30T07:43:00;103298.38;;;-3.35;72.66
50684;BME280;36654;45.042;38.994;2024-01-30T07:45:26;103368.38;;;-3.03;72.45
50684;BME280;36654;45.042;38.994;2024-01-30T07:47:53;103313.69;;;-3.29;72.26
50684;BME280;36654;45.042;38.994;2024-01-30T07:50:19;103355.41;;;-3.03;72.22
50684;BME280;36654;45.042;38.994;2024-01-30T07:52:50;103352.09;;;-3.02;72.15
50684;BME280;36654;45.042;38.994;2024-01-30T07:55:22;103348.53;;;-3.03;72.11
50684;BME280;36654;45.042;38.994;2024-01-30T07:57:52;103346.75;;;-2.95;71.79
50684;BME280;36654;45.042;38.994;2024-01-30T08:00:19;103287.91;;;-3.28;71.65
50684;BME280;36654;45.042;38.994;2024-01-30T08:02:49;103289.66;;;-3.19;71.44
50684;BME280;36654;45.042;38.994;2024-01-30T08:05:16;103340.75;;;-2.87;71.61
50684;BME280;36654;45.042;38.994;2024-01-30T08:07:42;103378.13;;;-2.85;71.51
50684;BME280;36654;45.042;38.994;2024-01-30T08:10:08;103314.09;;;-2.93;71.44
50684;BME280;36654;45.042;38.994;2024-01-30T08:12:36;103338.03;;;-2.79;71.01
50684;BME280;36654;45.042;38.994;2024-01-30T08:15:02;103340.78;;;-2.78;70.76
50684;BME280;36654;45.042;38.994;2024-01-30T08:17:28;103344.97;;;-2.71;70.72
50684;BME280;36654;45.042;38.994;2024-01-30T08:19:54;103337.59;;;-2.75;70.27
50684;BME280;36654;45.042;38.994;2024-01-30T08:22:19;103325.53;;;-2.75;70.23
50684;BME280;36654;45.042;38.994;2024-01-30T08:24:45;103304.63;;;-2.92;69.76
50684;BME280;36654;45.042;38.994;2024-01-30T08:27:11;103333.69;;;-2.63;69.57
50684;BME280;36654;45.042;38.994;2024-01-30T08:29:37;103307.84;;;-2.70;69.47
50684;BME280;36654;45.042;38.994;2024-01-30T08:32:05;103338.38;;;-2.52;69.12
50684;BME280;36654;45.042;38.994;2024-01-30T08:34:31;103272.78;;;-2.83;68.19
50684;BME280;36654;45.042;38.994;2024-01-30T08:36:56;103334.56;;;-2.47;67.83
50684;BME280;36654;45.042;38.994;2024-01-30T08:39:22;103316.69;;;-2.44;67.69
50684;BME280;36654;45.042;38.994;2024-01-30T08:41:48;103324.81;;;-2.41;67.88
50684;BME280;36654;45.042;38.994;2024-01-30T08:44:13;103233.59;;;-2.77;68.01
50684;BME280;36654;45.042;38.994;2024-01-30T08:46:39;103311.69;;;-2.33;67.77
50684;BME280;36654;45.042;38.994;2024-01-30T08:49:05;103320.13;;;-2.27;67.67
50684;BME280;36654;45.042;38.994;2024-01-30T08:51:31;103318.78;;;-2.24;67.26
50684;BME280;36654;45.042;38.994;2024-01-30T08:53:57;103255.66;;;-2.56;66.92
50684;BME280;36654;45.042;38.994;2024-01-30T08:56:23;103273.50;;;-2.34;66.61
50684;BME280;36654;45.042;38.994;2024-01-30T08:58:49;103296.66;;;-2.03;66.06
50684;BME280;36654;45.042;38.994;2024-01-30T09:01:14;103291.19;;;-1.88;65.27
50684;BME280;36654;45.042;38.994;2024-01-30T09:03:40;103289.69;;;-1.78;64.67
50684;BME280;36654;45.042;38.994;2024-01-30T09:06:09;103299.97;;;-1.62;64.56
50684;BME280;36654;45.042;38.994;2024-01-30T09:08:35;103287.44;;;-1.48;64.02
50684;BME280;36654;45.042;38.994;2024-01-30T09:11:07;103238.78;;;-1.67;63.24
50684;BME280;36654;45.042;38.994;2024-01-30T09:13:35;103292.19;;;-1.27;62.60
50684;BME280;36654;45.042;38.994;2024-01-30T09:16:01;103288.66;;;-1.19;61.76
50684;BME280;36654;45.042;38.994;2024-01-30T09:18:26;103221.16;;;-1.43;60.48
50684;BME280;36654;45.042;38.994;2024-01-30T09:20:52;103287.13;;;-1.08;58.89
50684;BME280;36654;45.042;38.994;2024-01-30T09:23:17;103223.44;;;-1.38;57.82
50684;BME280;36654;45.042;38.994;2024-01-30T09:25:45;103282.03;;;-0.98;57.07
50684;BME280;36654;45.042;38.994;2024-01-30T09:28:11;103267.19;;;-0.99;56.37
50684;BME280;36654;45.042;38.994;2024-01-30T09:30:37;103262.44;;;-0.94;55.67
50684;BME280;36654;45.042;38.994;2024-01-30T09:33:02;103284.59;;;-0.80;55.99
50684;BME280;36654;45.042;38.994;2024-01-30T09:35:28;103273.56;;;-0.78;55.29
50684;BME280;36654;45.042;38.994;2024-01-30T09:37:55;103260.66;;;-0.68;55.17
50684;BME280;36654;45.042;38.994;2024-01-30T09:40:22;103267.56;;;-0.59;55.14
50684;BME280;36654;45.042;38.994;2024-01-30T09:42:50;103257.31;;;-0.67;54.57
50684;BME280;36654;45.042;38.994;2024-01-30T09:45:18;103271.72;;;-0.70;54.29
50684;BME280;36654;45.042;38.994;2024-01-30T09:47:47;103193.09;;;-1.11;54.08
50684;BME280;36654;45.042;38.994;2024-01-30T09:50:14;103244.78;;;-0.88;53.73
50684;BME280;36654;45.042;38.994;2024-01-30T09:52:40;103247.06;;;-0.82;53.80
50684;BME280;36654;45.042;38.994;2024-01-30T09:55:07;103227.34;;;-0.89;53.53
50684;BME280;36654;45.042;38.994;2024-01-30T09:57:34;103237.09;;;-0.78;53.55
50684;BME280;36654;45.042;38.994;2024-01-30T10:00:00;103228.03;;;-0.73;53.43
50684;BME280;36654;45.042;38.994;2024-01-30T10:02:26;103227.28;;;-0.72;53.19
50684;BME280;36654;45.042;38.994;2024-01-30T10:04:52;103160.91;;;-1.03;53.36
50684;BME280;36654;45.042;38.994;2024-01-30T10:07:18;103211.38;;;-0.75;53.18
50684;BME280;36654;45.042;38.994;2024-01-30T10:09:47;103234.63;;;-0.68;53.21
50684;BME280;36654;45.042;38.994;2024-01-30T10:12:15;103223.47;;;-0.75;53.21
50684;BME280;36654;45.042;38.994;2024-01-30T10:14:43;103202.50;;;-0.77;52.67
50684;BME280;36654;45.042;38.994;2024-01-30T10:17:10;103217.16;;;-0.69;52.09
50684;BME280;36654;45.042;38.994;2024-01-30T10:19:38;103215.00;;;-0.64;51.42
50684;BME280;36654;45.042;38.994;2024-01-30T10:22:04;103221.41;;;-0.60;50.97
50684;BME280;36654;45.042;38.994;2024-01-30T10:24:30;103209.44;;;-0.58;50.74
50684;BME280;36654;45.042;38.994;2024-01-30T10:26:58;103210.97;;;-0.60;50.73
50684;BME280;36654;45.042;38.994;2024-01-30T10:29:28;103223.38;;;-0.49;50.89
50684;BME280;36654;45.042;38.994;2024-01-30T10:32:00;103215.25;;;-0.52;50.81
50684;BME280;36654;45.042;38.994;2024-01-30T10:34:26;103217.72;;;-0.54;49.40
50684;BME280;36654;45.042;38.994;2024-01-30T10:37:00;103177.63;;;-0.64;48.93
50684;BME280;36654;45.042;38.994;2024-01-30T10:39:37;103226.88;;;-0.40;48.54
50684;BME280;36654;45.042;38.994;2024-01-30T10:42:04;103216.44;;;-0.40;48.73
50684;BME280;36654;45.042;38.994;2024-01-30T10:44:37;103205.06;;;-0.40;48.74
50684;BME280;36654;45.042;38.994;2024-01-30T10:47:08;103212.13;;;-0.39;48.65
50684;BME280;36654;45.042;38.994;2024-01-30T10:49:36;103206.56;;;-0.34;48.59
50684;BME280;36654;45.042;38.994;2024-01-30T10:52:03;103192.00;;;-0.32;48.90
50684;BME280;36654;45.042;38.994;2024-01-30T10:54:34;103137.84;;;-0.53;48.41
50684;BME280;36654;45.042;38.994;2024-01-30T10:57:01;103126.34;;;-0.55;48.42
50684;BME280;36654;45.042;38.994;2024-01-30T10:59:30;103148.94;;;-0.37;48.58
50684;BME280;36654;45.042;38.994;2024-01-30T11:02:00;103194.84;;;-0.20;48.56
50684;BME280;36654;45.042;38.994;2024-01-30T11:04:27;103177.63;;;-0.18;48.30
50684;BME280;36654;45.042;38.994;2024-01-30T11:06:53;103180.88;;;-0.20;48.06
50684;BME280;36654;45.042;38.994;2024-01-30T11:09:19;103139.00;;;-0.41;48.08
50684;BME280;36654;45.042;38.994;2024-01-30T11:12:01;103177.00;;;-0.15;47.74
50684;BME280;36654;45.042;38.994;2024-01-30T11:14:34;103170.41;;;-0.12;47.67
50684;BME280;36654;45.042;38.994;2024-01-30T11:16:59;103191.19;;;-0.03;47.88
50684;BME280;36654;45.042;38.994;2024-01-30T11:19:26;103172.31;;;-0.01;47.89
50684;BME280;36654;45.042;38.994;2024-01-30T11:21:55;103122.75;;;-0.19;47.93
50684;BME280;36654;45.042;38.994;2024-01-30T11:24:23;103163.72;;;0.01;47.96
50684;BME280;36654;45.042;38.994;2024-01-30T11:27:02;103165.75;;;0.13;47.55
50684;BME280;36654;45.042;38.994;2024-01-30T11:29:35;103176.00;;;0.20;47.78
50684;BME280;36654;45.042;38.994;2024-01-30T11:32:00;103122.03;;;-0.08;47.81
50684;BME280;36654;45.042;38.994;2024-01-30T11:34:26;103182.81;;;0.29;47.32
50684;BME280;36654;45.042;38.994;2024-01-30T11:36:55;103162.63;;;0.17;46.88
50684;BME280;36654;45.042;38.994;2024-01-30T11:39:24;103179.72;;;0.33;47.28
50684;BME280;36654;45.042;38.994;2024-01-30T11:41:51;103182.47;;;0.34;46.98
50684;BME280;36654;45.042;38.994;2024-01-30T11:44:22;103156.94;;;0.21;47.38
50684;BME280;36654;45.042;38.994;2024-01-30T11:46:51;103180.00;;;0.36;47.38
50684;BME280;36654;45.042;38.994;2024-01-30T11:49:17;103188.59;;;0.35;46.81
50684;BME280;36654;45.042;38.994;2024-01-30T11:51:45;103180.75;;;0.35;47.12
50684;BME280;36654;45.042;38.994;2024-01-30T11:54:11;103186.72;;;0.42;47.61
50684;BME280;36654;45.042;38.994;2024-01-30T11:56:38;103158.06;;;0.34;47.80
50684;BME280;36654;45.042;38.994;2024-01-30T11:59:04;103175.63;;;0.45;47.52
50684;BME280;36654;45.042;38.994;2024-01-30T12:01:31;103175.91;;;0.48;47.83
50684;BME280;36654;45.042;38.994;2024-01-30T12:03:59;103187.16;;;0.57;48.05
50684;BME280;36654;45.042;38.994;2024-01-30T12:06:25;103178.28;;;0.55;47.71
50684;BME280;36654;45.042;38.994;2024-01-30T12:09:00;103177.78;;;0.59;47.96
50684;BME280;36654;45.042;38.994;2024-01-30T12:11:28;103174.34;;;0.50;48.04
50684;BME280;36654;45.042;38.994;2024-01-30T12:13:55;103177.94;;;0.61;47.95
50684;BME280;36654;45.042;38.994;2024-01-30T12:16:21;103169.66;;;0.56;47.53
50684;BME280;36654;45.042;38.994;2024-01-30T12:18:47;103180.69;;;0.62;47.83
50684;BME280;36654;45.042;38.994;2024-01-30T12:21:16;103165.72;;;0.51;47.70
50684;BME280;36654;45.042;38.994;2024-01-30T12:23:42;103174.19;;;0.68;47.70
50684;BME280;36654;45.042;38.994;2024-01-30T12:26:08;103172.59;;;0.70;47.75
50684;BME280;36654;45.042;38.994;2024-01-30T12:28:34;103164.88;;;0.61;47.28
50684;BME280;36654;45.042;38.994;2024-01-30T12:31:03;103170.78;;;0.69;47.12
50684;BME280;36654;45.042;38.994;2024-01-30T12:33:30;103150.28;;;0.63;47.27
50684;BME280;36654;45.042;38.994;2024-01-30T12:36:01;103169.50;;;0.74;47.75
50684;BME280;36654;45.042;38.994;2024-01-30T12:38:27;103114.81;;;0.46;47.59